Time;durP1;ratioP1;P1;durP2;ratioP2;P2;SDS_P1;SDS_P2;PMS_P1;PMS_P2;Temp;Humidity;BMP_temperature;BMP_pressure;BME280_temperature;BME280_humidity;BME280_pressure;Samples;Min_cycle;Max_cycle;Signal;HPM_P1;HPM_P2
2022/10/15 00:01:36;;;;;;;44.25;34.53;;;;;;;10.81;100.00;100678.59;5009585;28;20034;-86
2022/10/15 00:04:02;;;;;;;52.03;36.70;;;;;;;10.79;100.00;100671.75;5008949;28;20104;-86
2022/10/15 00:06:27;;;;;;;50.45;35.85;;;;;;;10.81;100.00;100672.50;5027674;28;20204;-86
2022/10/15 00:08:52;;;;;;;51.88;35.78;;;;;;;10.78;100.00;100672.69;5018611;28;20056;-86
2022/10/15 00:11:24;;;;;;;52.58;34.22;;;;;;;10.76;100.00;100677.25;5027881;28;20029;-86
2022/10/15 00:13:52;;;;;;;51.87;35.50;;;;;;;10.80;100.00;100670.78;5011687;28;20046;-86
2022/10/15 00:16:22;;;;;;;54.13;36.38;;;;;;;10.81;100.00;100675.97;5007960;28;20315;-86
2022/10/15 00:18:48;;;;;;;55.47;36.60;;;;;;;10.87;100.00;100682.53;5008067;28;20022;-86
2022/10/15 00:21:16;;;;;;;56.78;37.20;;;;;;;10.88;100.00;100684.22;5015225;28;20551;-86
2022/10/15 00:23:42;;;;;;;51.28;35.33;;;;;;;10.91;100.00;100678.69;5011598;28;20608;-85
2022/10/15 00:26:13;;;;;;;55.15;38.95;;;;;;;10.99;100.00;100684.19;5010793;28;20025;-86
2022/10/15 00:28:38;;;;;;;57.63;39.97;;;;;;;11.02;100.00;100681.31;5022687;28;20025;-86
2022/10/15 00:31:15;;;;;;;56.22;40.08;;;;;;;11.05;100.00;100677.63;5008325;28;20032;-86
2022/10/15 00:33:41;;;;;;;55.53;39.90;;;;;;;11.04;100.00;100676.78;5012998;28;20108;-86
2022/10/15 00:36:11;;;;;;;57.20;38.58;;;;;;;11.07;100.00;100688.84;5013020;28;20109;-86
2022/10/15 00:38:36;;;;;;;60.22;40.67;;;;;;;11.09;100.00;100679.03;5022792;28;20471;-86
2022/10/15 00:41:03;;;;;;;56.03;38.58;;;;;;;11.13;100.00;100683.09;5008463;28;20032;-86
2022/10/15 00:43:40;;;;;;;50.15;37.38;;;;;;;11.14;100.00;100675.09;5010893;28;20374;-86
2022/10/15 00:46:16;;;;;;;50.13;37.50;;;;;;;11.16;100.00;100682.88;5010519;28;20025;-85
2022/10/15 00:48:42;;;;;;;53.95;38.67;;;;;;;11.21;100.00;100681.56;5021879;28;20026;-84
2022/10/15 00:51:08;;;;;;;58.90;39.78;;;;;;;11.19;100.00;100683.44;5002373;28;20021;-86
2022/10/15 00:53:33;;;;;;;53.72;39.20;;;;;;;11.23;100.00;100679.66;5026791;28;20075;-86
2022/10/15 00:56:00;;;;;;;48.92;37.08;;;;;;;11.24;100.00;100683.13;5013024;28;20064;-85
2022/10/15 00:58:28;;;;;;;45.90;37.03;;;;;;;11.28;100.00;100690.66;5014476;28;20112;-86
2022/10/15 01:00:54;;;;;;;50.08;37.92;;;;;;;11.29;100.00;100687.06;5023301;28;20067;-85
2022/10/15 01:03:19;;;;;;;53.25;38.65;;;;;;;11.30;100.00;100686.09;5025077;28;20025;-86
2022/10/15 01:05:48;;;;;;;47.63;37.10;;;;;;;11.35;100.00;100684.88;5016726;28;20195;-86
2022/10/15 01:08:13;;;;;;;49.78;37.58;;;;;;;11.32;100.00;100682.50;5008275;28;20033;-85
2022/10/15 01:11:01;;;;;;;48.83;38.55;;;;;;;11.38;100.00;100687.28;5032500;28;20034;-86
2022/10/15 01:13:37;;;;;;;46.13;35.38;;;;;;;11.36;100.00;100684.78;5031950;28;20497;-86
2022/10/15 01:16:27;;;;;;;43.88;35.42;;;;;;;11.40;100.00;100680.94;5013450;28;20543;-86
2022/10/15 01:19:00;;;;;;;49.45;37.13;;;;;;;11.39;100.00;100673.97;5014625;28;20037;-86
2022/10/15 01:21:48;;;;;;;51.03;36.30;;;;;;;11.44;100.00;100670.97;5031234;28;20026;-86
2022/10/15 01:24:51;;;;;;;47.03;37.13;;;;;;;11.49;100.00;100666.16;5012178;28;20040;-86
2022/10/15 01:27:41;;;;;;;47.85;36.33;;;;;;;11.52;100.00;100663.28;5014011;28;20065;-86
2022/10/15 01:30:17;;;;;;;44.00;36.22;;;;;;;11.54;100.00;100664.00;5013376;28;20029;-86
2022/10/15 01:33:03;;;;;;;43.83;36.88;;;;;;;11.53;100.00;100662.31;5014467;28;20067;-86
2022/10/15 01:35:32;;;;;;;42.53;35.97;;;;;;;11.55;100.00;100647.22;5031013;28;20026;-85
2022/10/15 01:38:18;;;;;;;39.42;34.15;;;;;;;11.56;100.00;100648.91;5014081;28;20021;-86
2022/10/15 01:40:50;;;;;;;43.72;36.83;;;;;;;11.57;100.00;100646.13;5030912;28;20242;-86
2022/10/15 01:43:31;;;;;;;40.70;34.95;;;;;;;11.60;100.00;100647.69;5030325;28;20039;-86
2022/10/15 01:46:01;;;;;;;40.47;34.60;;;;;;;11.60;100.00;100653.78;5014189;28;20068;-86
2022/10/15 01:48:29;;;;;;;41.72;34.20;;;;;;;11.65;100.00;100658.72;5014169;28;20045;-86
2022/10/15 01:50:59;;;;;;;43.40;35.95;;;;;;;11.65;100.00;100649.97;5031727;28;20100;-86
2022/10/15 01:53:26;;;;;;;38.80;34.03;;;;;;;11.66;100.00;100649.00;5010978;28;20052;-86
2022/10/15 01:56:00;;;;;;;44.75;34.20;;;;;;;11.70;100.00;100646.00;5012868;28;20026;-85
2022/10/15 01:58:28;;;;;;;39.88;34.38;;;;;;;11.70;100.00;100632.81;5009920;28;20033;-85
2022/10/15 02:00:58;;;;;;;43.83;34.75;;;;;;;11.73;100.00;100640.47;5030505;28;20033;-86
2022/10/15 02:03:24;;;;;;;42.92;35.15;;;;;;;11.73;100.00;100635.19;5012645;28;20120;-85
2022/10/15 02:05:57;;;;;;;42.42;34.83;;;;;;;11.75;100.00;100632.44;5017053;28;20113;-86
2022/10/15 02:08:31;;;;;;;;;;;;;;;11.83;100.00;100635.31;5014157;28;20446;-86
2022/10/15 02:11:04;;;;;;;41.67;34.10;;;;;;;11.77;100.00;100633.16;5012716;28;20027;-86
2022/10/15 02:13:51;;;;;;;37.55;32.90;;;;;;;11.78;100.00;100622.50;5009997;28;20057;-86
2022/10/15 02:16:27;;;;;;;39.22;33.55;;;;;;;11.79;100.00;100629.44;5011465;28;20032;-86
2022/10/15 02:19:07;;;;;;;38.42;32.85;;;;;;;11.78;100.00;100627.78;5022927;28;20446;-85
2022/10/15 02:21:46;;;;;;;39.80;33.25;;;;;;;11.82;100.00;100623.94;5012577;28;20024;-86
2022/10/15 02:24:19;;;;;;;40.92;33.65;;;;;;;11.81;100.00;100619.63;5029944;28;20072;-86
2022/10/15 02:26:46;;;;;;;41.70;34.10;;;;;;;11.79;100.00;100613.63;4998313;28;20075;-86
2022/10/15 02:29:16;;;;;;;42.53;34.25;;;;;;;11.81;100.00;100614.34;5009926;28;20014;-86
2022/10/15 02:31:45;;;;;;;39.10;33.78;;;;;;;11.82;100.00;100609.91;5010766;28;20025;-86
2022/10/15 02:34:16;;;;;;;38.20;33.85;;;;;;;11.83;100.00;100609.78;5022117;28;20359;-85
2022/10/15 02:36:41;;;;;;;41.25;35.17;;;;;;;11.84;100.00;100610.63;5010009;28;20018;-86
2022/10/15 02:39:11;;;;;;;44.78;34.63;;;;;;;11.85;100.00;100607.00;5012505;28;20032;-86
2022/10/15 02:41:38;;;;;;;44.28;36.30;;;;;;;11.85;100.00;100594.66;5026166;28;20458;-86
2022/10/15 02:44:04;;;;;;;41.80;35.45;;;;;;;11.85;100.00;100591.19;5015105;28;20030;-86
2022/10/15 02:46:29;;;;;;;45.15;35.42;;;;;;;11.86;100.00;100583.16;5010411;28;20120;-86
2022/10/15 02:48:58;;;;;;;44.10;35.67;;;;;;;11.88;100.00;100583.03;5010048;28;20022;-85
2022/10/15 02:51:23;;;;;;;47.85;36.20;;;;;;;11.88;100.00;100580.41;5012664;28;20041;-86
2022/10/15 02:53:49;;;;;;;42.15;35.38;;;;;;;11.90;100.00;100574.03;5015462;28;20470;-86
2022/10/15 02:56:14;;;;;;;47.10;37.40;;;;;;;11.90;100.00;100579.31;5010322;28;20217;-86
2022/10/15 02:58:40;;;;;;;44.33;37.15;;;;;;;11.90;100.00;100579.31;5031750;28;20021;-87
2022/10/15 03:01:05;;;;;;;42.17;36.00;;;;;;;11.92;100.00;100566.81;5012041;28;20393;-86
2022/10/15 03:03:31;;;;;;;44.30;36.05;;;;;;;11.92;100.00;100566.81;5030544;28;20058;-86
2022/10/15 03:05:56;;;;;;;40.30;34.90;;;;;;;11.92;100.00;100566.81;5013336;28;20076;-86
2022/10/15 03:08:21;;;;;;;43.40;35.47;;;;;;;11.92;100.00;100556.28;5029560;28;20029;-86
2022/10/15 03:10:47;;;;;;;41.88;35.80;;;;;;;11.96;100.00;100566.56;5031113;28;20120;-86
2022/10/15 03:13:13;;;;;;;44.55;35.40;;;;;;;11.96;100.00;100566.56;5029142;28;20069;-84
2022/10/15 03:15:38;;;;;;;42.22;34.40;;;;;;;11.93;100.00;100563.22;5011656;28;20113;-85
2022/10/15 03:18:04;;;;;;;43.45;35.60;;;;;;;11.96;100.00;100563.94;5010856;28;20075;-86
2022/10/15 03:20:29;;;;;;;45.80;35.47;;;;;;;11.95;100.00;100559.63;5009731;28;20037;-85
2022/10/15 03:22:58;;;;;;;40.97;33.63;;;;;;;11.96;100.00;100567.41;5012398;28;20022;-86
2022/10/15 03:25:23;;;;;;;41.65;33.90;;;;;;;11.97;100.00;100563.78;5012689;28;20024;-86
2022/10/15 03:27:51;;;;;;;46.33;34.45;;;;;;;11.97;100.00;100555.06;5030781;28;20025;-86
2022/10/15 03:30:17;;;;;;;46.05;33.60;;;;;;;11.97;100.00;100568.22;5027508;28;20063;-86
2022/10/15 03:32:42;;;;;;;43.78;35.10;;;;;;;11.97;100.00;100569.06;5018073;28;20483;-86
2022/10/15 03:35:08;;;;;;;43.33;34.10;;;;;;;12.01;100.00;100567.00;5008165;28;20069;-86
2022/10/15 03:37:33;;;;;;;49.95;35.97;;;;;;;12.02;100.00;100566.06;5010614;28;20026;-86
2022/10/15 03:39:59;;;;;;;46.65;35.42;;;;;;;12.03;100.00;100565.09;5008796;28;20033;-86
2022/10/15 03:42:24;;;;;;;45.05;35.58;;;;;;;12.05;100.00;100560.53;5011290;28;20372;-86
2022/10/15 03:44:49;;;;;;;45.13;34.65;;;;;;;12.07;100.00;100563.88;5012893;28;20090;-85
2022/10/15 03:47:14;;;;;;;46.25;35.30;;;;;;;12.07;100.00;100555.97;5011737;28;20025;-86
2022/10/15 03:49:40;;;;;;;48.55;35.80;;;;;;;12.08;100.00;100549.72;5027818;28;20032;-86
2022/10/15 03:52:05;;;;;;;42.50;33.25;;;;;;;12.05;100.00;100553.47;5011297;28;20168;-85
2022/10/15 03:54:30;;;;;;;48.30;35.28;;;;;;;12.07;100.00;100548.06;5029245;28;20100;-86
2022/10/15 03:56:56;;;;;;;49.22;35.30;;;;;;;12.04;100.00;100550.97;5020056;28;20104;-84
2022/10/15 03:59:21;;;;;;;47.30;35.35;;;;;;;12.07;100.00;100554.16;5022057;28;20592;-84
2022/10/15 04:01:47;;;;;;;47.30;34.88;;;;;;;12.06;100.00;100555.13;5001039;28;20022;-84
2022/10/15 04:04:12;;;;;;;46.03;34.28;;;;;;;12.06;100.00;100556.94;5024679;28;20420;-86
2022/10/15 04:06:38;;;;;;;49.47;35.88;;;;;;;12.05;100.00;100555.25;5012029;28;20079;-86
2022/10/15 04:09:04;;;;;;;47.00;35.45;;;;;;;12.06;100.00;100556.94;5002463;28;20497;-85
2022/10/15 04:11:29;;;;;;;54.13;37.05;;;;;;;12.05;100.00;100560.53;5022292;28;20049;-86
2022/10/15 04:13:58;;;;;;;55.08;38.08;;;;;;;12.07;100.00;100566.50;5011222;28;20041;-85
2022/10/15 04:16:23;;;;;;;55.75;38.70;;;;;;;12.10;100.00;100558.34;5014204;28;20022;-86
2022/10/15 04:18:49;;;;;;;54.55;37.30;;;;;;;12.09;100.00;100556.69;5011632;28;20108;-86
2022/10/15 04:21:14;;;;;;;55.47;37.83;;;;;;;12.10;100.00;100563.63;5029267;28;20855;-86
2022/10/15 04:23:39;;;;;;;58.63;38.58;;;;;;;12.12;100.00;100566.97;5012010;28;20040;-85
2022/10/15 04:26:05;;;;;;;58.78;40.35;;;;;;;12.14;100.00;100568.50;5027183;28;20063;-85
2022/10/15 04:28:32;;;;;;;60.70;40.30;;;;;;;12.16;100.00;100568.38;5014454;28;20022;-86
2022/10/15 04:30:58;;;;;;;64.47;40.85;;;;;;;12.18;100.00;100571.72;5022851;28;20033;-86
2022/10/15 04:33:24;;;;;;;63.67;42.47;;;;;;;12.20;100.00;100564.50;5015606;28;20030;-86
2022/10/15 04:36:09;;;;;;;63.72;41.85;;;;;;;12.22;100.00;100557.28;5013006;28;20482;-86
2022/10/15 04:38:34;;;;;;;60.08;41.13;;;;;;;12.23;100.00;100553.69;5001322;28;20036;-86
2022/10/15 04:41:08;;;;;;;62.88;41.50;;;;;;;12.24;100.00;100555.34;5015937;28;20111;-86
2022/10/15 04:43:34;;;;;;;65.88;42.20;;;;;;;12.25;100.00;100557.03;5015205;28;20112;-86
2022/10/15 04:46:02;;;;;;;64.00;42.03;;;;;;;12.27;100.00;100551.63;4998958;28;20545;-84
2022/10/15 04:48:28;;;;;;;65.13;41.67;;;;;;;12.26;100.00;100553.41;5016081;28;20035;-86
2022/10/15 04:50:54;;;;;;;61.42;40.92;;;;;;;12.28;100.00;100559.41;5016060;28;20044;-86
2022/10/15 04:53:20;;;;;;;59.78;40.92;;;;;;;12.28;100.00;100553.28;5027280;28;20025;-86
2022/10/15 04:55:46;;;;;;;60.90;41.60;;;;;;;12.30;100.00;100554.81;5022543;28;20033;-86
2022/10/15 04:58:12;;;;;;;63.85;40.55;;;;;;;12.31;100.00;100545.09;5015107;28;20037;-86
2022/10/15 05:00:38;;;;;;;63.78;41.30;;;;;;;12.32;100.00;100554.69;5014783;28;20033;-86
2022/10/15 05:03:05;;;;;;;58.55;40.10;;;;;;;12.33;100.00;100553.72;5014798;28;20084;-86
2022/10/15 05:05:31;;;;;;;63.33;41.10;;;;;;;12.34;100.00;100555.41;5031856;28;20425;-85
2022/10/15 05:08:00;;;;;;;56.58;40.13;;;;;;;12.34;100.00;100556.22;5015830;28;20060;-86
2022/10/15 05:10:26;;;;;;;60.33;39.65;;;;;;;12.35;100.00;100551.78;5013082;28;20037;-86
2022/10/15 05:12:51;;;;;;;54.05;39.30;;;;;;;12.35;100.00;100551.78;5013019;28;20183;-86
2022/10/15 05:15:16;;;;;;;55.47;39.22;;;;;;;12.33;100.00;100565.13;4993893;28;20110;-86
2022/10/15 05:17:42;;;;;;;52.90;36.30;;;;;;;12.32;100.00;100558.16;4995791;28;20029;-86
2022/10/15 05:20:07;;;;;;;53.85;36.38;;;;;;;12.29;100.00;100555.78;5027895;28;20033;-85
2022/10/15 05:22:33;;;;;;;48.83;35.13;;;;;;;12.28;100.00;100559.41;5030033;28;20072;-86
2022/10/15 05:24:58;;;;;;;48.53;36.22;;;;;;;12.29;100.00;100568.16;5018611;28;20112;-85
2022/10/15 05:27:23;;;;;;;50.85;35.13;;;;;;;12.29;100.00;100566.34;5013450;28;20026;-86
2022/10/15 05:29:49;;;;;;;48.08;35.15;;;;;;;12.30;100.00;100564.53;5013150;28;20371;-86
2022/10/15 05:32:14;;;;;;;50.72;36.08;;;;;;;12.30;100.00;100562.75;4995241;28;20246;-86
2022/10/15 05:34:39;;;;;;;53.10;36.22;;;;;;;12.29;100.00;100562.88;4995416;28;20041;-86
2022/10/15 05:37:05;;;;;;;51.67;37.60;;;;;;;12.27;100.00;100563.00;4995422;28;20022;-86
2022/10/15 05:39:30;;;;;;;50.83;35.35;;;;;;;12.29;100.00;100563.72;5016439;28;20577;-86
2022/10/15 05:41:56;;;;;;;49.67;35.67;;;;;;;12.28;100.00;100556.75;5038197;28;20389;-85
2022/10/15 05:44:22;;;;;;;53.35;37.15;;;;;;;12.27;100.00;100563.00;5024624;28;20032;-86
2022/10/15 05:46:47;;;;;;;49.40;36.38;;;;;;;12.28;100.00;100556.75;5039795;28;20467;-85
2022/10/15 05:49:12;;;;;;;47.40;35.78;;;;;;;12.27;100.00;100552.44;5018014;28;20037;-86
2022/10/15 05:51:38;;;;;;;50.10;36.30;;;;;;;12.29;100.00;100550.53;5019447;28;20028;-85
2022/10/15 05:54:03;;;;;;;51.05;36.70;;;;;;;12.30;100.00;100554.00;5023016;28;20025;-86
2022/10/15 05:56:28;;;;;;;49.47;36.53;;;;;;;12.29;100.00;100549.69;5019035;28;20156;-86
2022/10/15 05:58:55;;;;;;;53.05;37.30;;;;;;;12.30;100.00;100554.81;5039367;28;20424;-86
2022/10/15 06:01:20;;;;;;;49.03;35.65;;;;;;;12.30;100.00;100557.47;5016323;28;20045;-84
2022/10/15 06:03:46;;;;;;;50.47;36.10;;;;;;;12.30;100.00;100559.25;5017758;28;20025;-85
2022/10/15 06:06:25;;;;;;;51.33;36.33;;;;;;;12.28;100.00;100551.47;5019803;28;20013;-86
2022/10/15 06:08:51;;;;;;;52.05;36.00;;;;;;;12.29;100.00;100557.59;5037743;28;20409;-86
2022/10/15 06:11:17;;;;;;;46.25;35.70;;;;;;;12.26;100.00;100555.22;5022889;28;20033;-85
2022/10/15 06:13:44;;;;;;;49.00;35.30;;;;;;;12.25;100.00;100551.75;5030487;28;20049;-85
2022/10/15 06:16:11;;;;;;;46.50;35.10;;;;;;;12.25;100.00;100554.38;5011999;28;20552;-86
2022/10/15 06:18:37;;;;;;;50.78;35.67;;;;;;;12.26;100.00;100558.69;5020326;28;20033;-86
2022/10/15 06:21:03;;;;;;;51.85;36.13;;;;;;;12.26;100.00;100552.59;5036464;28;20024;-86
2022/10/15 06:23:29;;;;;;;51.05;36.60;;;;;;;12.26;100.00;100552.59;5035045;28;20033;-87
2022/10/15 06:25:54;;;;;;;51.47;35.95;;;;;;;12.28;100.00;100559.41;5035419;28;20390;-86
2022/10/15 06:28:20;;;;;;;55.03;37.80;;;;;;;12.29;100.00;100552.31;5020123;28;20017;-85
2022/10/15 06:30:45;;;;;;;52.60;37.42;;;;;;;12.28;100.00;100550.66;5020511;28;20032;-85
2022/10/15 06:33:11;;;;;;;51.70;36.85;;;;;;;12.30;100.00;100556.63;5017940;28;20025;-85
2022/10/15 06:35:36;;;;;;;54.38;37.72;;;;;;;12.30;100.00;100554.81;5034724;28;20021;-86
2022/10/15 06:38:03;;;;;;;52.30;38.05;;;;;;;12.29;100.00;100553.16;5032026;28;20478;-86
2022/10/15 06:40:28;;;;;;;57.47;38.92;;;;;;;12.29;100.00;100557.59;5013098;28;20116;-86
2022/10/15 06:42:54;;;;;;;52.80;37.97;;;;;;;12.32;100.00;100554.69;5031456;28;20101;-86
2022/10/15 06:45:19;;;;;;;52.65;39.22;;;;;;;12.31;100.00;100553.03;5027400;28;20466;-86
2022/10/15 06:47:44;;;;;;;56.88;39.35;;;;;;;12.32;100.00;100552.88;5029924;28;20033;-86
2022/10/15 06:50:11;;;;;;;56.25;40.15;;;;;;;12.32;100.00;100552.88;5030212;28;20025;-86
2022/10/15 06:52:36;;;;;;;56.78;39.22;;;;;;;12.32;100.00;100557.34;5030377;28;20389;-86
2022/10/15 06:55:01;;;;;;;54.42;38.88;;;;;;;12.29;100.00;100553.16;5023146;28;20029;-86
2022/10/15 06:57:27;;;;;;;53.15;38.95;;;;;;;12.28;100.00;100546.22;5012651;28;20093;-86
2022/10/15 06:59:53;;;;;;;51.40;38.40;;;;;;;12.31;100.00;100556.50;5029480;28;20039;-86
2022/10/15 07:02:18;;;;;;;53.95;38.53;;;;;;;12.28;100.00;100546.22;5026482;28;20028;-86
2022/10/15 07:04:45;;;;;;;51.97;38.55;;;;;;;12.27;100.00;100547.19;5030607;28;20413;-86
2022/10/15 07:07:10;;;;;;;50.92;37.58;;;;;;;12.27;100.00;100555.09;5012003;28;20107;-86
2022/10/15 07:09:35;;;;;;;52.30;37.88;;;;;;;12.23;100.00;100553.69;5030874;28;20061;-86
2022/10/15 07:12:01;;;;;;;51.60;37.67;;;;;;;12.25;100.00;100567.56;5029968;28;20029;-86
2022/10/15 07:14:27;;;;;;;53.83;38.30;;;;;;;12.24;100.00;100565.91;5030291;28;20084;-86
2022/10/15 07:16:52;;;;;;;47.63;35.35;;;;;;;12.27;100.00;100568.28;5030990;28;20658;-86
2022/10/15 07:19:17;;;;;;;47.10;34.90;;;;;;;12.28;100.00;100567.31;5011077;28;20053;-86
2022/10/15 07:21:43;;;;;;;50.83;35.95;;;;;;;12.32;100.00;100558.16;5012700;28;20069;-86
2022/10/15 07:24:08;;;;;;;48.72;35.53;;;;;;;12.35;100.00;100552.63;5012984;28;20025;-86
2022/10/15 07:26:34;;;;;;;53.33;35.55;;;;;;;12.45;100.00;100537.69;5012739;28;20497;-86
2022/10/15 07:28:59;;;;;;;47.38;34.20;;;;;;;12.49;100.00;100533.81;5009080;28;20040;-85
2022/10/15 07:31:24;;;;;;;45.35;32.50;;;;;;;12.58;100.00;100536.63;5012729;28;20092;-86
2022/10/15 07:33:50;;;;;;;44.90;32.88;;;;;;;12.61;100.00;100528.44;5007617;28;20055;-86
2022/10/15 07:36:15;;;;;;;46.10;32.67;;;;;;;12.65;100.00;100533.31;5021748;28;20112;-86
2022/10/15 07:38:41;;;;;;;43.67;31.48;;;;;;;12.64;100.00;100521.06;5001373;28;20061;-86
2022/10/15 07:41:08;;;;;;;37.85;29.50;;;;;;;12.69;100.00;100532.06;5010012;28;20048;-86
2022/10/15 07:43:34;;;;;;;37.40;28.13;;;;;;;12.67;100.00;100530.53;5010835;28;20076;-86
2022/10/15 07:46:00;;;;;;;38.00;28.60;;;;;;;12.68;100.00;100526.91;4992963;28;20044;-86
2022/10/15 07:48:25;;;;;;;39.03;28.88;;;;;;;12.67;100.00;100526.09;4992165;28;20068;-86
2022/10/15 07:51:00;;;;;;;37.53;28.20;;;;;;;12.73;100.00;100519.41;4994656;28;20021;-85
2022/10/15 07:53:26;;;;;;;37.67;28.88;;;;;;;12.87;100.00;100521.69;5030872;28;20033;-86
2022/10/15 07:55:52;;;;;;;36.15;27.67;;;;;;;12.89;100.00;100516.28;5012453;28;20110;-86
2022/10/15 07:58:17;;;;;;;35.22;26.48;;;;;;;12.95;100.00;100519.22;5028471;28;20128;-85
2022/10/15 08:00:44;;;;;;;33.25;26.05;;;;;;;12.99;100.00;100517.97;5030585;28;20131;-86
2022/10/15 08:03:12;;;;;;;33.47;25.13;;;;;;;13.04;100.00;100513.09;5028993;28;20124;-86
2022/10/15 08:05:37;;;;;;;30.05;23.83;;;;;;;13.07;100.00;100510.19;5030353;28;20040;-86
2022/10/15 08:08:03;;;;;;;27.77;23.30;;;;;;;13.15;100.00;100510.31;5030076;28;20466;-86
2022/10/15 08:10:28;;;;;;;27.95;23.13;;;;;;;13.22;100.00;100499.25;5029101;28;20033;-86
2022/10/15 08:12:53;;;;;;;25.98;21.38;;;;;;;13.29;100.00;100495.06;5014852;28;20324;-87
2022/10/15 08:15:19;;;;;;;24.65;20.17;;;;;;;13.30;100.00;100499.38;5013061;28;20567;-87
2022/10/15 08:17:45;;;;;;;24.42;19.88;;;;;;;13.33;100.00;100496.47;5027387;28;20068;-86
2022/10/15 08:20:10;;;;;;;23.80;18.67;;;;;;;13.39;100.00;100501.19;5014367;28;20115;-87
2022/10/15 08:22:35;;;;;;;21.27;17.38;;;;;;;13.48;100.00;100490.59;5025972;28;20115;-87
2022/10/15 08:25:01;;;;;;;21.25;16.33;;;;;;;13.56;100.00;100492.53;5026296;28;20030;-88
2022/10/15 08:27:26;;;;;;;19.77;15.13;;;;;;;13.59;100.00;100502.00;5014805;28;20037;-87
2022/10/15 08:29:52;;;;;;;19.42;14.38;;;;;;;13.66;100.00;100503.94;5029681;28;20060;-87
2022/10/15 08:32:17;;;;;;;15.70;13.07;;;;;;;13.69;100.00;100501.03;5016541;28;20367;-88
2022/10/15 08:34:42;;;;;;;16.80;13.05;;;;;;;13.72;100.00;100490.16;5002767;28;20029;-87
2022/10/15 08:37:08;;;;;;;16.33;12.02;;;;;;;13.72;100.00;100487.50;5019745;28;20351;-88
2022/10/15 08:39:34;;;;;;;12.93;11.15;;;;;;;13.74;100.00;100482.06;5001363;28;20061;-88
2022/10/15 08:42:25;;;;;;;11.73;10.52;;;;;;;13.77;100.00;100474.69;5002601;28;20113;-87
2022/10/15 08:44:56;;;;;;;12.82;9.88;;;;;;;13.79;100.00;100467.44;4998925;28;20029;-84
2022/10/15 08:47:33;;;;;;;12.87;8.97;;;;;;;13.86;100.00;100474.81;5001820;28;20041;-87
2022/10/15 08:50:01;;;;;;;10.52;8.60;;;;;;;13.93;100.00;100483.81;5022422;28;20033;-84
2022/10/15 08:52:48;;;;;;;10.55;7.88;;;;;;;14.00;100.00;100475.16;5027426;28;20029;-84
2022/10/15 08:55:16;;;;;;;10.70;7.38;;;;;;;13.96;100.00;100470.31;5011182;28;21988;-87
2022/10/15 08:57:52;;;;;;;9.25;7.65;;;;;;;13.96;100.00;100467.66;5011375;28;20021;-88
2022/10/15 09:00:31;;;;;;;9.73;7.13;;;;;;;13.99;100.00;100457.63;5028312;28;20032;-88
2022/10/15 09:03:20;;;;;;;8.93;7.60;;;;;;;14.05;100.00;100454.44;5011154;28;20030;-88
2022/10/15 09:06:13;;;;;;;8.45;7.20;;;;;;;14.10;100.00;100449.53;5010421;28;20499;-88
2022/10/15 09:08:52;;;;;;;9.48;7.65;;;;;;;14.14;100.00;100446.59;5029444;28;20049;-88
2022/10/15 09:11:39;;;;;;;8.73;7.78;;;;;;;14.15;100.00;100443.78;5010691;28;20037;-88
2022/10/15 09:14:13;;;;;;;8.23;7.35;;;;;;;14.15;100.00;100446.44;5028520;28;20052;-88
2022/10/15 09:16:40;;;;;;;8.80;7.90;;;;;;;14.18;100.00;100440.84;5014705;28;20025;-88
2022/10/15 09:19:15;;;;;;;8.27;7.15;;;;;;;14.17;100.00;100443.66;5032395;28;20108;-85
2022/10/15 09:21:41;;;;;;;8.82;7.50;;;;;;;14.18;100.00;100442.66;5018476;28;20385;-87
2022/10/15 09:24:12;;;;;;;10.20;6.88;;;;;;;14.24;100.00;100445.56;5014817;28;20500;-88
2022/10/15 09:26:52;;;;;;;7.30;6.57;;;;;;;14.25;100.00;100447.22;5022902;28;20022;-85
2022/10/15 09:29:26;;;;;;;8.82;6.50;;;;;;;14.23;100.00;100451.84;5022515;28;20478;-85
2022/10/15 09:32:05;;;;;;;7.35;6.10;;;;;;;14.28;100.00;100452.22;5032642;28;20509;-85
2022/10/15 09:35:01;;;;;;;7.82;6.18;;;;;;;14.31;100.00;100441.34;5014109;28;20021;-88
2022/10/15 09:37:42;;;;;;;8.30;5.43;;;;;;;14.33;100.00;100438.53;5010346;28;20065;-88
2022/10/15 09:40:27;;;;;;;8.02;5.32;;;;;;;14.31;100.00;100436.03;5012353;28;20432;-87
2022/10/15 09:42:58;;;;;;;8.43;5.53;;;;;;;14.32;100.00;100437.72;4993600;28;20064;-87
2022/10/15 09:45:23;;;;;;;7.85;5.32;;;;;;;14.29;100.00;100437.19;5020554;28;20092;-87
2022/10/15 09:47:49;;;;;;;6.53;5.25;;;;;;;14.30;100.00;100434.38;5031034;28;20029;-88
2022/10/15 09:50:15;;;;;;;8.48;4.97;;;;;;;14.33;100.00;100428.78;5009361;28;20760;-88
2022/10/15 09:52:56;;;;;;;7.93;5.05;;;;;;;14.33;100.00;100428.78;5021975;28;20033;-87
2022/10/15 09:55:27;;;;;;;8.30;5.22;;;;;;;14.34;100.00;100429.63;5031467;28;20112;-88
2022/10/15 09:57:56;;;;;;;5.65;4.50;;;;;;;14.36;100.00;100417.06;5012763;28;20100;-88
2022/10/15 10:00:21;;;;;;;6.18;4.68;;;;;;;14.37;100.00;100419.56;5010948;28;20125;-88
2022/10/15 10:03:13;;;;;;;5.28;4.45;;;;;;;14.46;100.00;100417.06;5011847;28;20430;-88
2022/10/15 10:05:38;;;;;;;7.93;4.30;;;;;;;14.49;100.00;100411.47;5012370;28;20029;-88
2022/10/15 10:08:21;;;;;;;5.72;3.90;;;;;;;14.48;100.00;100418.59;5015987;28;20367;-87
2022/10/15 10:11:06;;;;;;;5.30;3.63;;;;;;;14.51;100.00;100414.81;5013521;28;20123;-87
2022/10/15 10:13:38;;;;;;;6.90;3.30;;;;;;;14.56;100.00;100410.72;5013839;28;20060;-87
2022/10/15 10:16:07;;;;;;;5.30;3.40;;;;;;;14.56;100.00;100404.59;5030825;28;20034;-85
2022/10/15 10:18:32;;;;;;;4.10;2.97;;;;;;;14.57;100.00;100406.25;5029039;28;20033;-85
2022/10/15 10:21:06;;;;;;;7.88;3.20;;;;;;;14.62;100.00;100411.94;5004801;28;20056;-85
2022/10/15 10:23:37;;;;;;;2.83;2.53;;;;;;;14.66;100.00;100415.94;5012805;28;20026;-85
2022/10/15 10:26:06;;;;;;;4.53;2.33;;;;;;;14.70;100.00;100412.00;5026429;28;20014;-85
2022/10/15 10:28:38;;;;;;;3.65;2.63;;;;;;;14.76;100.00;100414.06;5031086;28;20516;-86
2022/10/15 10:31:08;;;;;;;3.25;2.50;;;;;;;14.77;100.00;100410.41;5031363;28;20091;-86
2022/10/15 10:33:43;;;;;;;4.05;2.58;;;;;;;14.78;100.00;100412.09;5029865;28;20381;-87
2022/10/15 10:36:38;;;;;;;3.88;2.30;;;;;;;14.82;100.00;100413.47;5029897;28;20037;-87
2022/10/15 10:39:12;;;;;;;3.65;2.30;;;;;;;14.84;100.00;100423.91;4999644;28;20049;-85
2022/10/15 10:41:57;;;;;;;2.50;2.15;;;;;;;14.89;100.00;100414.53;5010671;28;20033;-88
2022/10/15 10:44:40;;;;;;;4.47;2.10;;;;;;;14.93;100.00;100420.34;5029760;28;20025;-87
2022/10/15 10:47:08;;;;;;;;;;;;;;;14.99;100.00;100423.22;5024920;28;20029;-86
2022/10/15 10:49:40;;;;;;;1.95;1.85;;;;;;;14.97;100.00;100419.91;5017186;28;19913;-86
2022/10/15 10:52:05;;;;;;;2.50;2.30;;;;;;;15.01;100.00;100415.94;5029630;28;20037;-87
2022/10/15 10:54:32;;;;;;;3.55;2.63;;;;;;;15.07;100.00;100411.03;5018054;28;20031;-86
2022/10/15 10:57:00;;;;;;;4.47;2.40;;;;;;;15.11;100.00;100407.91;5025001;28;20029;-88
2022/10/15 10:59:43;;;;;;;3.67;2.53;;;;;;;15.13;100.00;100407.75;5029881;28;20021;-88
2022/10/15 11:02:11;;;;;;;5.68;2.70;;;;;;;15.20;100.00;100411.44;5012844;28;20025;-88
2022/10/15 11:04:38;;;;;;;4.32;2.80;;;;;;;15.24;100.00;100404.88;5030688;28;20101;-88
2022/10/15 11:07:04;;;;;;;5.57;2.85;;;;;;;15.30;100.00;100412.22;5030004;28;20052;-88
2022/10/15 11:09:45;;;;;;;4.30;2.70;;;;;;;15.34;100.00;100400.31;5030451;28;20494;-88
2022/10/15 11:12:26;;;;;;;3.85;3.00;;;;;;;15.39;100.00;100400.69;5029371;28;20060;-88
2022/10/15 11:15:07;;;;;;;4.03;2.75;;;;;;;15.48;100.00;100393.59;5012808;28;20030;-88